Time;durP1;ratioP1;P1;durP2;ratioP2;P2;SDS_P1;SDS_P2;PMS_P1;PMS_P2;Temp;Humidity;BMP_temperature;BMP_pressure;BME280_temperature;BME280_humidity;BME280_pressure;Samples;Min_cycle;Max_cycle;Signal;HPM_P1;HPM_P2
2021/12/26 00:00:37;;;;;;;;;;;4.40;99.90;;;;;;4438602;32;20019;-80
2021/12/26 00:03:04;;;;;;;;;;;4.30;99.90;;;;;;4424469;32;41920;-80
2021/12/26 00:05:35;;;;;;;;;;;4.30;99.90;;;;;;4438171;32;43368;-80
2021/12/26 00:08:07;;;;;;;;;;;4.30;99.90;;;;;;4439383;32;20007;-80
2021/12/26 00:10:42;;;;;;;;;;;4.30;99.90;;;;;;4424170;32;43662;-80
2021/12/26 00:13:10;;;;;;;;;;;4.30;99.90;;;;;;4437602;32;43638;-81
2021/12/26 00:15:37;;;;;;;;;;;4.30;99.90;;;;;;4438863;32;20379;-80
2021/12/26 00:18:04;;;;;;;;;;;4.30;99.90;;;;;;4423936;32;35619;-80
2021/12/26 00:20:32;;;;;;;;;;;4.30;99.90;;;;;;4424363;32;44458;-80
2021/12/26 00:22:59;;;;;;;;;;;4.30;99.90;;;;;;4424900;32;22003;-80
2021/12/26 00:25:27;;;;;;;;;;;4.30;99.90;;;;;;4424357;32;39352;-80
2021/12/26 00:27:54;;;;;;;;;;;4.30;99.90;;;;;;4424008;32;44706;-81
2021/12/26 00:30:24;;;;;;;;;;;4.30;99.90;;;;;;4411051;32;44042;-80
2021/12/26 00:32:51;;;;;;;;;;;4.30;99.90;;;;;;4438563;32;20015;-80
2021/12/26 00:35:24;;;;;;;;;;;4.20;99.90;;;;;;4423421;32;45075;-80
2021/12/26 00:37:51;;;;;;;;;;;4.30;99.90;;;;;;4438850;32;20040;-80
2021/12/26 00:40:19;;;;;;;;;;;4.20;99.90;;;;;;4424704;32;20408;-80
2021/12/26 00:42:56;;;;;;;;;;;4.30;99.90;;;;;;4411597;32;36471;-80
2021/12/26 00:45:26;;;;;;;;;;;4.20;99.90;;;;;;4437197;32;42714;-80
2021/12/26 00:47:53;;;;;;;;;;;4.20;99.90;;;;;;4438370;32;20028;-80
2021/12/26 00:50:29;;;;;;;;;;;4.20;99.90;;;;;;4438146;32;20008;-79
2021/12/26 00:53:02;;;;;;;;;;;4.20;99.90;;;;;;4424545;32;20070;-81
2021/12/26 00:55:30;;;;;;;;;;;4.20;99.90;;;;;;4411173;32;37275;-80
2021/12/26 00:58:00;;;;;;;;;;;4.20;99.90;;;;;;4423349;32;38451;-80
2021/12/26 01:00:32;;;;;;;;;;;4.20;99.90;;;;;;4438379;32;20059;-80
2021/12/26 01:03:01;;;;;;;;;;;4.20;99.90;;;;;;4437386;32;44902;-80
2021/12/26 01:05:32;;;;;;;;;;;4.20;99.90;;;;;;4436769;32;43630;-80
2021/12/26 01:08:03;;;;;;;;;;;4.10;99.90;;;;;;4410977;32;27725;-80
2021/12/26 01:10:34;;;;;;;;;;;4.10;99.90;;;;;;4423627;32;30643;-80
2021/12/26 01:13:23;;;;;;;;;;;4.20;99.90;;;;;;4408520;32;20016;-80
2021/12/26 01:15:53;;;;;;;;;;;4.10;99.90;;;;;;4420340;32;40956;-80
2021/12/26 01:18:22;;;;;;;;;;;4.10;99.90;;;;;;4423082;32;20022;-80
2021/12/26 01:20:58;;;;;;;;;;;4.10;99.90;;;;;;4421425;32;20049;-80
2021/12/26 01:23:28;;;;;;;;;;;4.10;99.90;;;;;;4420901;32;39115;-80
2021/12/26 01:25:58;;;;;;;;;;;4.10;99.90;;;;;;4422812;32;20013;-80
2021/12/26 01:28:32;;;;;;;;;;;4.10;99.90;;;;;;4422652;32;20063;-80
2021/12/26 01:31:02;;;;;;;;;;;4.10;99.90;;;;;;4407712;32;42215;-80
2021/12/26 01:33:32;;;;;;;;;;;4.10;99.90;;;;;;4420384;32;43281;-80
2021/12/26 01:36:02;;;;;;;;;;;4.10;99.90;;;;;;4421001;32;44530;-80
2021/12/26 01:38:32;;;;;;;;;;;4.10;99.90;;;;;;4420212;32;36172;-80
2021/12/26 01:41:10;;;;;;;;;;;4.10;99.90;;;;;;4420035;32;44627;-80
2021/12/26 01:43:38;;;;;;;;;;;4.10;99.90;;;;;;4421723;32;43318;-80
2021/12/26 01:46:13;;;;;;;;;;;4.10;99.90;;;;;;4421290;32;20381;-80
2021/12/26 01:48:41;;;;;;;;;;;4.10;99.90;;;;;;4420131;32;45209;-80
2021/12/26 01:51:11;;;;;;;;;;;4.10;99.90;;;;;;4419780;32;41879;-80
2021/12/26 01:53:43;;;;;;;;;;;4.10;99.90;;;;;;4419563;32;41735;-81
2021/12/26 01:56:13;;;;;;;;;;;4.00;99.90;;;;;;4420634;32;35526;-80
2021/12/26 01:58:45;;;;;;;;;;;4.10;99.90;;;;;;4421481;32;34206;-80
2021/12/26 02:01:15;;;;;;;;;;;4.10;99.90;;;;;;4420296;32;39592;-80
2021/12/26 02:03:48;;;;;;;;;;;4.00;99.90;;;;;;4421215;32;43652;-80
2021/12/26 02:06:21;;;;;;;;;;;4.10;99.90;;;;;;4421247;32;38956;-80
2021/12/26 02:08:51;;;;;;;;;;;4.10;99.90;;;;;;4421598;32;28037;-80
2021/12/26 02:11:18;;;;;;;;;;;4.00;99.90;;;;;;4420589;32;35323;-80
2021/12/26 02:13:48;;;;;;;;;;;4.10;99.90;;;;;;4435410;32;20003;-80
2021/12/26 02:16:15;;;;;;;;;;;4.00;99.90;;;;;;4422898;32;32985;-80
2021/12/26 02:18:48;;;;;;;;;;;4.00;99.90;;;;;;4423744;32;20019;-80
2021/12/26 02:21:40;;;;;;;;;;;4.10;99.90;;;;;;4423530;32;19987;-80
2021/12/26 02:24:33;;;;;;;;;;;4.00;99.90;;;;;;4423198;32;31892;-80
2021/12/26 02:29:49;;;;;;;;;;;4.00;99.90;;;;;;4422179;32;43923;-80
2021/12/26 02:32:16;;;;;;;;;;;4.00;99.90;;;;;;4409453;32;41441;-80
2021/12/26 02:34:43;;;;;;;;;;;4.00;99.90;;;;;;4435570;32;41166;-80
2021/12/26 02:37:10;;;;;;;;;;;4.00;99.90;;;;;;4422218;32;45189;-80
2021/12/26 02:39:37;;;;;;;;;;;4.00;99.90;;;;;;4435656;32;37988;-80
2021/12/26 02:42:04;;;;;;;;;;;4.00;99.90;;;;;;4443369;27;36778;-87
2021/12/26 02:44:32;;;;;;;;;;;4.00;99.90;;;;;;4376934;32;31227;-87
2021/12/26 02:47:02;;;;;;;;;;;4.00;99.90;;;;;;4377519;32;32819;-87
2021/12/26 02:49:32;;;;;;;;;;;4.00;99.90;;;;;;4377503;32;27950;-86
2021/12/26 02:51:59;;;;;;;;;;;4.00;99.90;;;;;;4376790;32;40679;-87
2021/12/26 02:54:29;;;;;;;;;;;4.00;99.90;;;;;;4376941;32;30435;-87
2021/12/26 02:56:59;;;;;;;;;;;4.00;99.90;;;;;;4389718;32;33136;-86
2021/12/26 02:59:30;;;;;;;;;;;4.00;99.90;;;;;;4390052;32;28919;-86
2021/12/26 03:01:57;;;;;;;;;;;4.00;99.90;;;;;;4377303;32;27437;-87
2021/12/26 03:04:27;;;;;;;;;;;4.00;99.90;;;;;;4389475;32;26278;-87
2021/12/26 03:07:03;;;;;;;;;;;4.00;99.90;;;;;;4388711;32;44193;-87
2021/12/26 03:09:43;;;;;;;;;;;3.90;99.90;;;;;;4377365;32;24363;-86
2021/12/26 03:12:14;;;;;;;;;;;4.00;99.90;;;;;;4376746;32;44035;-86
2021/12/26 03:14:41;;;;;;;;;;;4.00;99.90;;;;;;4388800;32;44142;-86
2021/12/26 03:17:08;;;;;;;;;;;4.00;99.90;;;;;;4389516;32;30163;-88
2021/12/26 03:19:36;;;;;;;;;;;3.90;99.90;;;;;;4389422;32;24294;-87
2021/12/26 03:22:06;;;;;;;;;;;4.00;99.90;;;;;;4377936;32;20019;-87
2021/12/26 03:24:34;;;;;;;;;;;4.00;99.90;;;;;;4379004;32;37678;-86
2021/12/26 03:27:02;;;;;;;;;;;4.00;99.90;;;;;;4392782;32;20428;-86
2021/12/26 03:29:34;;;;;;;;;;;4.00;99.90;;;;;;4380465;32;20409;-86
2021/12/26 03:32:01;;;;;;;;;;;4.00;99.90;;;;;;4379882;32;32587;-87
2021/12/26 03:34:29;;;;;;;;;;;3.90;99.90;;;;;;4379593;32;38355;-86
2021/12/26 03:36:59;;;;;;;;;;;4.00;99.90;;;;;;4391824;32;33767;-87
2021/12/26 03:39:29;;;;;;;;;;;3.90;99.90;;;;;;4380328;32;20000;-87
2021/12/26 03:41:56;;;;;;;;;;;4.00;99.90;;;;;;4391944;32;42128;-87
2021/12/26 03:44:26;;;;;;;;;;;3.90;99.90;;;;;;4393121;32;20402;-86
2021/12/26 03:46:53;;;;;;;;;;;4.00;99.90;;;;;;4379095;32;44701;-87
2021/12/26 03:49:27;;;;;;;;;;;4.00;99.90;;;;;;4379305;32;34456;-86
2021/12/26 03:51:54;;;;;;;;;;;3.90;99.90;;;;;;4379760;32;26117;-86
2021/12/26 03:54:21;;;;;;;;;;;3.90;99.90;;;;;;4391772;32;36974;-87
2021/12/26 03:56:57;;;;;;;;;;;3.90;99.90;;;;;;4380192;32;20004;-87
2021/12/26 03:59:27;;;;;;;;;;;3.90;99.90;;;;;;4379370;32;32343;-87
2021/12/26 04:01:57;;;;;;;;;;;3.90;99.90;;;;;;4379605;32;35060;-86
2021/12/26 04:04:30;;;;;;;;;;;3.90;99.90;;;;;;4380052;32;20405;-86
2021/12/26 04:06:57;;;;;;;;;;;3.90;99.90;;;;;;4392233;32;25295;-87
2021/12/26 04:09:27;;;;;;;;;;;3.90;99.90;;;;;;4379136;32;35603;-86
2021/12/26 04:11:55;;;;;;;;;;;3.90;99.90;;;;;;4378956;32;34883;-86
2021/12/26 04:14:22;;;;;;;;;;;3.90;99.90;;;;;;4393098;32;28540;-86
2021/12/26 04:16:52;;;;;;;;;;;3.90;99.90;;;;;;4391488;32;27838;-86
2021/12/26 04:19:22;;;;;;;;;;;3.90;99.90;;;;;;4392198;32;22127;-86
2021/12/26 04:21:49;;;;;;;;;;;3.90;99.90;;;;;;4379452;32;20026;-88
2021/12/26 04:24:19;;;;;;;;;;;3.90;99.90;;;;;;4379237;32;35154;-86
2021/12/26 04:26:46;;;;;;;;;;;3.90;99.90;;;;;;4392347;32;20021;-86
2021/12/26 04:29:19;;;;;;;;;;;3.90;99.90;;;;;;4379262;32;32369;-86
2021/12/26 04:31:46;;;;;;;;;;;3.90;99.90;;;;;;4378918;32;37950;-87
2021/12/26 04:34:13;;;;;;;;;;;3.90;99.90;;;;;;4379120;32;20018;-86
2021/12/26 04:36:41;;;;;;;;;;;3.90;99.90;;;;;;4378770;32;39201;-86
2021/12/26 04:39:08;;;;;;;;;;;3.90;99.90;;;;;;4378663;32;32836;-86
2021/12/26 04:41:39;;;;;;;;;;;3.90;99.90;;;;;;4379607;32;20000;-86
2021/12/26 04:44:06;;;;;;;;;;;3.90;99.90;;;;;;4379401;32;20403;-86
2021/12/26 04:46:33;;;;;;;;;;;3.90;99.90;;;;;;4379369;32;20000;-86
2021/12/26 04:49:06;;;;;;;;;;;3.90;99.90;;;;;;4378561;32;39278;-85
2021/12/26 04:51:36;;;;;;;;;;;3.90;99.90;;;;;;4392573;32;20050;-86
2021/12/26 04:54:06;;;;;;;;;;;3.90;99.90;;;;;;4378444;32;34300;-86
2021/12/26 04:56:33;;;;;;;;;;;3.90;99.90;;;;;;4378454;32;38307;-86
2021/12/26 04:59:00;;;;;;;;;;;3.90;99.90;;;;;;4391246;32;26893;-86
2021/12/26 05:01:30;;;;;;;;;;;3.90;99.90;;;;;;4391630;32;20015;-86
2021/12/26 05:04:01;;;;;;;;;;;3.90;99.90;;;;;;4390675;32;41268;-87
2021/12/26 05:06:28;;;;;;;;;;;4.00;99.90;;;;;;4378953;32;21661;-86
2021/12/26 05:08:58;;;;;;;;;;;3.90;99.90;;;;;;4379257;32;20008;-87
2021/12/26 05:11:25;;;;;;;;;;;3.90;99.90;;;;;;4390882;32;20109;-86
2021/12/26 05:13:58;;;;;;;;;;;3.90;99.90;;;;;;4379269;32;20012;-86
2021/12/26 05:16:29;;;;;;;;;;;3.90;99.90;;;;;;4392281;32;23851;-86
2021/12/26 05:18:59;;;;;;;;;;;3.90;99.90;;;;;;4378271;32;31265;-86
2021/12/26 05:21:29;;;;;;;;;;;4.00;99.90;;;;;;4390740;32;28237;-87
2021/12/26 05:23:56;;;;;;;;;;;3.90;99.90;;;;;;4378159;32;36306;-86
2021/12/26 05:26:26;;;;;;;;;;;4.00;99.90;;;;;;4391586;32;20012;-86
2021/12/26 05:28:56;;;;;;;;;;;3.90;99.90;;;;;;4379457;32;20035;-87
2021/12/26 05:31:23;;;;;;;;;;;3.90;99.90;;;;;;4378042;32;19996;-86
2021/12/26 05:33:50;;;;;;;;;;;3.90;99.90;;;;;;4391300;32;32659;-86
2021/12/26 05:36:20;;;;;;;;;;;3.90;99.90;;;;;;4377639;32;30581;-87
2021/12/26 05:38:50;;;;;;;;;;;3.90;99.90;;;;;;4377922;32;24047;-87
2021/12/26 05:41:20;;;;;;;;;;;3.90;99.90;;;;;;4390669;32;27477;-87
2021/12/26 05:43:51;;;;;;;;;;;3.90;99.90;;;;;;4378563;32;20037;-86
2021/12/26 05:46:21;;;;;;;;;;;3.90;99.90;;;;;;4389316;32;36428;-87
2021/12/26 05:48:51;;;;;;;;;;;3.90;99.90;;;;;;4377992;32;34387;-86
2021/12/26 05:51:22;;;;;;;;;;;3.90;99.90;;;;;;4378071;32;38801;-86
2021/12/26 05:53:52;;;;;;;;;;;3.90;99.90;;;;;;4378156;32;29934;-87
2021/12/26 05:56:22;;;;;;;;;;;3.90;99.90;;;;;;4377799;32;20478;-87
2021/12/26 05:58:51;;;;;;;;;;;3.90;99.90;;;;;;4378793;32;20011;-86
2021/12/26 06:01:26;;;;;;;;;;;3.90;99.90;;;;;;4392029;32;20020;-86
2021/12/26 06:03:53;;;;;;;;;;;3.90;99.90;;;;;;4391086;32;20000;-86
2021/12/26 06:06:26;;;;;;;;;;;3.90;99.90;;;;;;4391220;32;20000;-86
2021/12/26 06:08:56;;;;;;;;;;;3.90;99.90;;;;;;4377486;32;31913;-86
2021/12/26 06:11:23;;;;;;;;;;;3.90;99.90;;;;;;4377553;32;26919;-86
2021/12/26 06:13:58;;;;;;;;;;;3.90;99.90;;;;;;4391825;32;20000;-86
2021/12/26 06:16:25;;;;;;;;;;;3.90;99.90;;;;;;4377513;32;33885;-86
2021/12/26 06:18:56;;;;;;;;;;;3.90;99.90;;;;;;4377890;32;20008;-86
2021/12/26 06:21:28;;;;;;;;;;;3.90;99.90;;;;;;4377673;32;35979;-86
2021/12/26 06:23:58;;;;;;;;;;;3.90;99.90;;;;;;4377078;32;34990;-86
2021/12/26 06:26:30;;;;;;;;;;;3.90;99.90;;;;;;4377208;32;37315;-86
2021/12/26 06:28:58;;;;;;;;;;;3.90;99.90;;;;;;4390277;32;27150;-86
2021/12/26 06:31:31;;;;;;;;;;;3.90;99.90;;;;;;4390929;32;20008;-86
2021/12/26 06:33:58;;;;;;;;;;;4.00;99.90;;;;;;4377174;32;41238;-86
2021/12/26 06:36:31;;;;;;;;;;;3.90;99.90;;;;;;4389891;32;35436;-86
2021/12/26 06:39:00;;;;;;;;;;;3.90;99.90;;;;;;4377194;32;37006;-86
2021/12/26 06:41:28;;;;;;;;;;;3.90;99.90;;;;;;4377492;32;24626;-86
2021/12/26 06:44:00;;;;;;;;;;;3.90;99.90;;;;;;4377270;32;24840;-86
2021/12/26 06:46:30;;;;;;;;;;;3.90;99.90;;;;;;4390766;32;28468;-87
2021/12/26 06:49:01;;;;;;;;;;;3.90;99.90;;;;;;4389830;32;26331;-86
2021/12/26 06:51:31;;;;;;;;;;;4.00;99.90;;;;;;4376830;32;36663;-86
2021/12/26 06:53:58;;;;;;;;;;;3.90;99.90;;;;;;4376490;32;44430;-86
2021/12/26 06:56:31;;;;;;;;;;;3.90;99.90;;;;;;4390281;32;20467;-86
2021/12/26 06:59:04;;;;;;;;;;;3.90;99.90;;;;;;4389201;32;40765;-86
2021/12/26 07:01:36;;;;;;;;;;;3.90;99.90;;;;;;4390739;32;20005;-86
2021/12/26 07:04:07;;;;;;;;;;;3.90;99.90;;;;;;4377186;32;31286;-86
2021/12/26 07:06:37;;;;;;;;;;;4.00;99.90;;;;;;4377849;32;19996;-86
2021/12/26 07:09:09;;;;;;;;;;;4.00;99.90;;;;;;4376405;32;37541;-86
2021/12/26 07:11:37;;;;;;;;;;;3.90;99.90;;;;;;4389803;32;20011;-86
2021/12/26 07:14:10;;;;;;;;;;;3.90;99.90;;;;;;4377845;32;20470;-86
2021/12/26 07:16:41;;;;;;;;;;;4.00;99.90;;;;;;4389206;32;37117;-87
2021/12/26 07:19:14;;;;;;;;;;;4.00;99.90;;;;;;4390755;32;20014;-86
2021/12/26 07:21:41;;;;;;;;;;;4.00;99.90;;;;;;4388674;32;42493;-87
2021/12/26 07:24:11;;;;;;;;;;;4.00;99.90;;;;;;4376728;32;31766;-86
2021/12/26 07:26:44;;;;;;;;;;;4.00;99.90;;;;;;4377890;32;20070;-86
2021/12/26 07:29:17;;;;;;;;;;;4.00;99.90;;;;;;4377927;32;20004;-85
2021/12/26 07:31:48;;;;;;;;;;;4.00;99.90;;;;;;4376708;32;24219;-86
2021/12/26 07:34:23;;;;;;;;;;;4.00;99.90;;;;;;4376205;32;41834;-87
2021/12/26 07:36:53;;;;;;;;;;;4.00;99.90;;;;;;4388945;32;38923;-87
2021/12/26 07:39:23;;;;;;;;;;;4.00;99.90;;;;;;4376514;32;39491;-86
2021/12/26 07:41:51;;;;;;;;;;;4.00;99.90;;;;;;4389735;32;20417;-87
2021/12/26 07:44:21;;;;;;;;;;;4.00;99.90;;;;;;4389341;32;31937;-86
2021/12/26 07:46:53;;;;;;;;;;;4.00;99.90;;;;;;4391328;32;20066;-87
2021/12/26 07:49:27;;;;;;;;;;;4.00;99.90;;;;;;4376028;32;40786;-86
2021/12/26 07:51:55;;;;;;;;;;;4.00;99.90;;;;;;4376914;32;23461;-86
2021/12/26 07:54:23;;;;;;;;;;;4.00;99.90;;;;;;4376569;32;26578;-86
2021/12/26 07:56:51;;;;;;;;;;;4.00;99.90;;;;;;4390554;32;25622;-86
2021/12/26 07:59:27;;;;;;;;;;;4.00;99.90;;;;;;4377241;32;20015;-87
2021/12/26 08:01:57;;;;;;;;;;;4.00;99.90;;;;;;4389245;32;24602;-87
2021/12/26 08:04:24;;;;;;;;;;;4.00;99.90;;;;;;4390068;32;20004;-86
2021/12/26 08:07:00;;;;;;;;;;;4.00;99.90;;;;;;4376899;32;20010;-86
2021/12/26 08:09:30;;;;;;;;;;;4.00;99.90;;;;;;4389371;32;43683;-86
2021/12/26 08:12:03;;;;;;;;;;;4.00;99.90;;;;;;4378506;32;45606;-86
2021/12/26 08:14:35;;;;;;;;;;;4.00;99.90;;;;;;4379246;32;28897;-87
2021/12/26 08:17:03;;;;;;;;;;;4.00;99.90;;;;;;4380246;32;20004;-86
2021/12/26 08:19:30;;;;;;;;;;;4.00;99.90;;;;;;4379566;32;20897;-86
2021/12/26 08:21:58;;;;;;;;;;;4.10;99.90;;;;;;4392568;32;20059;-86
2021/12/26 08:24:26;;;;;;;;;;;4.00;99.90;;;;;;4379960;32;20040;-86
2021/12/26 08:26:56;;;;;;;;;;;4.00;99.90;;;;;;4379502;32;20048;-86
2021/12/26 08:29:27;;;;;;;;;;;4.00;99.90;;;;;;4391093;32;40454;-86
2021/12/26 08:32:01;;;;;;;;;;;4.00;99.90;;;;;;4391725;32;29006;-86
2021/12/26 08:34:31;;;;;;;;;;;4.10;99.90;;;;;;4391464;32;34220;-86
2021/12/26 08:37:04;;;;;;;;;;;4.00;99.90;;;;;;4391521;32;33658;-87
2021/12/26 08:39:35;;;;;;;;;;;4.00;99.90;;;;;;4378870;32;33593;-86
2021/12/26 08:42:05;;;;;;;;;;;4.00;99.90;;;;;;4379377;32;20007;-87
2021/12/26 08:44:38;;;;;;;;;;;4.00;99.90;;;;;;4378761;32;33356;-86
2021/12/26 08:47:09;;;;;;;;;;;4.10;99.90;;;;;;4379855;32;19996;-86
2021/12/26 08:49:43;;;;;;;;;;;4.10;99.90;;;;;;4391802;32;20063;-87
2021/12/26 08:52:12;;;;;;;;;;;4.10;99.90;;;;;;4391492;32;43523;-86
2021/12/26 08:54:42;;;;;;;;;;;4.10;99.90;;;;;;4379554;32;20276;-86
2021/12/26 08:57:15;;;;;;;;;;;4.10;99.90;;;;;;4391801;32;20012;-86
2021/12/26 08:59:45;;;;;;;;;;;4.10;99.90;;;;;;4392211;32;20022;-86
2021/12/26 09:02:15;;;;;;;;;;;4.00;99.90;;;;;;4392209;32;20387;-86
2021/12/26 09:04:49;;;;;;;;;;;4.10;99.90;;;;;;4379241;32;20014;-86
2021/12/26 09:07:19;;;;;;;;;;;4.10;99.90;;;;;;4378544;32;33443;-86
2021/12/26 09:09:54;;;;;;;;;;;4.10;99.90;;;;;;4392881;32;20463;-86
2021/12/26 09:12:29;;;;;;;;;;;4.10;99.90;;;;;;4392084;32;20004;-86
2021/12/26 09:14:59;;;;;;;;;;;4.10;99.90;;;;;;4379079;32;20034;-85
2021/12/26 09:17:33;;;;;;;;;;;4.10;99.90;;;;;;4379369;32;19988;-86
2021/12/26 09:20:06;;;;;;;;;;;4.10;99.90;;;;;;4378368;32;34130;-86
2021/12/26 09:22:39;;;;;;;;;;;4.10;99.90;;;;;;4378873;32;20010;-86
2021/12/26 09:25:13;;;;;;;;;;;4.10;99.90;;;;;;4379331;32;20048;-87
2021/12/26 09:27:41;;;;;;;;;;;4.10;99.90;;;;;;4378049;32;26276;-86
2021/12/26 09:30:11;;;;;;;;;;;4.10;99.90;;;;;;4377989;32;33554;-87
2021/12/26 09:32:38;;;;;;;;;;;4.10;99.90;;;;;;4390678;32;20017;-86
2021/12/26 09:35:06;;;;;;;;;;;4.20;99.90;;;;;;4391601;32;20432;-86
2021/12/26 09:37:33;;;;;;;;;;;4.10;99.90;;;;;;4377843;32;25781;-86
2021/12/26 09:40:00;;;;;;;;;;;4.10;99.90;;;;;;4390413;32;21199;-87
2021/12/26 09:42:30;;;;;;;;;;;4.10;99.90;;;;;;4377674;32;32404;-86
2021/12/26 09:44:58;;;;;;;;;;;4.10;99.90;;;;;;4377763;32;33909;-86
2021/12/26 09:47:26;;;;;;;;;;;4.20;99.90;;;;;;4377367;32;41443;-87
2021/12/26 09:50:03;;;;;;;;;;;4.20;99.90;;;;;;4391820;32;20382;-86
2021/12/26 09:52:33;;;;;;;;;;;4.10;99.90;;;;;;4377493;32;31177;-86
2021/12/26 09:55:00;;;;;;;;;;;4.10;99.90;;;;;;4390962;32;20397;-86
2021/12/26 09:57:28;;;;;;;;;;;4.10;99.90;;;;;;4377474;32;34992;-86
2021/12/26 09:59:56;;;;;;;;;;;4.20;99.90;;;;;;4378794;32;20368;-86
2021/12/26 10:02:30;;;;;;;;;;;4.20;99.90;;;;;;4377933;32;22287;-86
2021/12/26 10:04:58;;;;;;;;;;;4.20;99.90;;;;;;4391284;32;36987;-86
2021/12/26 10:07:26;;;;;;;;;;;4.20;99.90;;;;;;4377603;32;23585;-86
2021/12/26 10:46:35;;;;;;;;;;;4.20;99.90;;;;;;4433424;32;19996;-78
2021/12/26 10:49:21;;;;;;;;;;;4.20;99.90;;;;;;4420368;32;20003;-78
2021/12/26 10:51:48;;;;;;;;;;;4.20;99.90;;;;;;4433872;32;20021;-78
2021/12/26 10:54:17;;;;;;;;;;;4.30;99.90;;;;;;4420583;32;20019;-78
2021/12/26 10:57:01;;;;;;;;;;;4.30;99.90;;;;;;4433048;32;20497;-78
2021/12/26 10:59:28;;;;;;;;;;;4.30;99.90;;;;;;4421073;32;20030;-78
2021/12/26 11:01:56;;;;;;;;;;;4.30;99.90;;;;;;4420851;32;20006;-78
2021/12/26 11:04:24;;;;;;;;;;;4.40;99.90;;;;;;4420355;32;20049;-78
2021/12/26 11:07:00;;;;;;;;;;;4.30;99.90;;;;;;4420419;32;20374;-79
2021/12/26 11:09:30;;;;;;;;;;;4.40;99.90;;;;;;4433573;32;20392;-78
2021/12/26 11:12:02;;;;;;;;;;;4.40;99.90;;;;;;4433590;32;20015;-78
2021/12/26 11:14:32;;;;;;;;;;;4.40;99.90;;;;;;4433509;32;20059;-78
2021/12/26 11:16:59;;;;;;;;;;;4.40;99.90;;;;;;4420708;32;20003;-78
2021/12/26 11:19:43;;;;;;;;;;;4.40;99.90;;;;;;4420196;32;19995;-78
2021/12/26 11:22:14;;;;;;;;;;;4.50;99.90;;;;;;4433143;32;20030;-78
2021/12/26 11:24:42;;;;;;;;;;;4.50;99.90;;;;;;4433332;32;20055;-78
2021/12/26 11:27:12;;;;;;;;;;;4.50;99.90;;;;;;4433170;32;19999;-78
2021/12/26 11:29:40;;;;;;;;;;;4.50;99.90;;;;;;4432798;32;20074;-78
2021/12/26 11:32:08;;;;;;;;;;;4.50;99.90;;;;;;4420028;32;20000;-78
2021/12/26 11:34:38;;;;;;;;;;;4.50;99.90;;;;;;4432806;32;20030;-78
2021/12/26 11:37:05;;;;;;;;;;;4.50;99.90;;;;;;4420300;32;20029;-78
2021/12/26 11:39:32;;;;;;;;;;;4.50;99.90;;;;;;4420004;32;19992;-78
2021/12/26 11:42:06;;;;;;;;;;;4.50;99.90;;;;;;4420070;32;20003;-79
2021/12/26 11:44:52;;;;;;;;;;;4.50;99.90;;;;;;4419813;32;20400;-79
2021/12/26 11:47:41;;;;;;;;;;;4.60;99.90;;;;;;4410849;32;20022;-78
2021/12/26 11:50:27;;;;;;;;;;;4.60;99.90;;;;;;4410072;32;20347;-78
2021/12/26 11:53:13;;;;;;;;;;;4.60;99.90;;;;;;4422496;32;20407;-79
2021/12/26 11:55:59;;;;;;;;;;;4.60;99.90;;;;;;4408990;32;28098;-78
2021/12/26 11:58:45;;;;;;;;;;;4.60;99.90;;;;;;4409637;32;20006;-78
2021/12/26 12:01:13;;;;;;;;;;;4.60;99.90;;;;;;4422440;32;21885;-78
2021/12/26 12:03:43;;;;;;;;;;;4.60;99.90;;;;;;4408454;32;45268;-78
2021/12/26 12:06:31;;;;;;;;;;;4.60;99.90;;;;;;4409129;32;22594;-78
2021/12/26 12:08:58;;;;;;;;;;;4.60;99.90;;;;;;4409415;32;19999;-78
2021/12/26 12:11:25;;;;;;;;;;;4.60;99.90;;;;;;4421508;32;33228;-78
2021/12/26 12:13:53;;;;;;;;;;;4.60;99.90;;;;;;4421404;32;32678;-78
2021/12/26 12:16:23;;;;;;;;;;;4.60;99.90;;;;;;4413323;32;39729;-79
2021/12/26 12:18:52;;;;;;;;;;;4.60;99.90;;;;;;4394689;32;20109;-78
2021/12/26 12:21:21;;;;;;;;;;;4.70;99.90;;;;;;4407067;32;20008;-78
2021/12/26 12:23:59;;;;;;;;;;;4.70;99.90;;;;;;4394431;32;20004;-79
2021/12/26 12:26:37;;;;;;;;;;;4.70;99.90;;;;;;4406438;32;20009;-78
2021/12/26 12:29:04;;;;;;;;;;;4.70;99.90;;;;;;4394562;32;19993;-78
2021/12/26 12:31:31;;;;;;;;;;;4.70;99.90;;;;;;4393552;32;29495;-78
2021/12/26 12:34:03;;;;;;;;;;;4.70;99.90;;;;;;4393985;32;20033;-78
2021/12/26 12:36:34;;;;;;;;;;;4.70;99.90;;;;;;4406221;32;25007;-78
2021/12/26 12:39:12;;;;;;;;;;;4.70;99.90;;;;;;4394027;32;20121;-78
2021/12/26 12:41:41;;;;;;;;;;;4.70;99.90;;;;;;4406970;32;20383;-78
2021/12/26 12:44:26;;;;;;;;;;;4.70;99.90;;;;;;4393620;32;20064;-78
2021/12/26 12:47:02;;;;;;;;;;;4.70;99.90;;;;;;4394287;32;20000;-78
2021/12/26 12:49:40;;;;;;;;;;;4.80;99.90;;;;;;4407046;32;20049;-78
2021/12/26 12:52:07;;;;;;;;;;;4.80;99.90;;;;;;4393477;32;20004;-78
2021/12/26 12:54:35;;;;;;;;;;;4.80;99.90;;;;;;4406725;32;20438;-78
2021/12/26 12:57:06;;;;;;;;;;;4.80;99.90;;;;;;4393777;32;20011;-78
2021/12/26 12:59:35;;;;;;;;;;;4.80;99.90;;;;;;4392925;32;32176;-79
2021/12/26 13:02:05;;;;;;;;;;;4.80;99.90;;;;;;4406311;32;20019;-80
2021/12/26 13:04:36;;;;;;;;;;;4.80;99.90;;;;;;4420918;32;20011;-78
2021/12/26 13:07:04;;;;;;;;;;;4.80;99.90;;;;;;4421139;32;20051;-78
2021/12/26 13:09:32;;;;;;;;;;;4.80;99.90;;;;;;4420955;32;20146;-78
2021/12/26 13:12:01;;;;;;;;;;;4.80;99.90;;;;;;4408986;32;20021;-78
2021/12/26 13:14:40;;;;;;;;;;;4.80;99.90;;;;;;4408885;32;20019;-78
2021/12/26 13:17:13;;;;;;;;;;;4.80;99.90;;;;;;4408914;32;20362;-79
2021/12/26 13:19:41;;;;;;;;;;;4.80;99.90;;;;;;4408410;32;19999;-78
2021/12/26 13:22:08;;;;;;;;;;;4.80;99.90;;;;;;4408283;32;20003;-78
2021/12/26 13:24:37;;;;;;;;;;;4.90;99.90;;;;;;4408620;32;19995;-78
2021/12/26 13:27:05;;;;;;;;;;;4.90;99.90;;;;;;4421257;32;19999;-78
2021/12/26 13:29:33;;;;;;;;;;;4.90;99.90;;;;;;4408800;32;20058;-79
2021/12/26 13:32:00;;;;;;;;;;;4.90;99.90;;;;;;4422060;32;20017;-78
2021/12/26 13:34:28;;;;;;;;;;;4.90;99.90;;;;;;4408516;32;20013;-79
2021/12/26 13:36:55;;;;;;;;;;;4.90;99.90;;;;;;4408322;32;20363;-80
2021/12/26 13:39:24;;;;;;;;;;;4.90;99.90;;;;;;4408446;32;20055;-79
2021/12/26 13:41:52;;;;;;;;;;;4.90;99.90;;;;;;4420764;32;20145;-77
2021/12/26 13:44:20;;;;;;;;;;;4.90;99.90;;;;;;4408448;32;20003;-77
2021/12/26 13:47:00;;;;;;;;;;;4.90;99.90;;;;;;4420879;32;20396;-78
2021/12/26 13:49:27;;;;;;;;;;;5.00;99.90;;;;;;4408044;32;20067;-80
2021/12/26 13:51:55;;;;;;;;;;;5.00;99.90;;;;;;4408452;32;20044;-80
2021/12/26 13:54:26;;;;;;;;;;;5.00;99.90;;;;;;4420557;32;20012;-80
2021/12/26 13:57:01;;;;;;;;;;;5.00;99.90;;;;;;4420792;32;20026;-80
2021/12/26 13:59:32;;;;;;;;;;;5.00;99.90;;;;;;4408215;32;20029;-78
2021/12/26 14:02:01;;;;;;;;;;;5.00;99.90;;;;;;4408341;32;20393;-78
2021/12/26 14:04:28;;;;;;;;;;;5.00;99.90;;;;;;4420622;32;19999;-78
2021/12/26 14:06:55;;;;;;;;;;;5.00;99.90;;;;;;4408406;32;19999;-78
2021/12/26 14:09:26;;;;;;;;;;;5.00;99.90;;;;;;4420198;32;20027;-78
2021/12/26 14:11:53;;;;;;;;;;;5.10;99.90;;;;;;4420342;32;20048;-78
2021/12/26 14:14:25;;;;;;;;;;;5.10;99.90;;;;;;4408062;32;20037;-78
2021/12/26 14:16:52;;;;;;;;;;;5.10;99.90;;;;;;4420506;32;20088;-78
2021/12/26 14:19:19;;;;;;;;;;;5.10;99.90;;;;;;4420306;32;20011;-79
2021/12/26 14:21:49;;;;;;;;;;;5.10;99.90;;;;;;4420898;32;20067;-78
2021/12/26 14:24:20;;;;;;;;;;;5.10;99.90;;;;;;4407948;32;19996;-79
2021/12/26 14:26:48;;;;;;;;;;;5.10;99.90;;;;;;4406655;32;34096;-78
2021/12/26 14:29:18;;;;;;;;;;;5.10;99.90;;;;;;4419520;32;30372;-78
2021/12/26 14:31:46;;;;;;;;;;;5.10;99.90;;;;;;4420224;32;20000;-78
2021/12/26 14:34:28;;;;;;;;;;;5.10;99.90;;;;;;4420088;32;20029;-78
2021/12/26 14:36:56;;;;;;;;;;;5.10;99.90;;;;;;4419755;32;21957;-78
2021/12/26 14:39:29;;;;;;;;;;;5.10;99.90;;;;;;4407301;32;25339;-78
2021/12/26 14:41:57;;;;;;;;;;;5.10;99.90;;;;;;4407590;32;20003;-78
2021/12/26 14:44:29;;;;;;;;;;;5.20;99.90;;;;;;4420537;32;21606;-78
2021/12/26 14:47:08;;;;;;;;;;;5.20;99.90;;;;;;4407275;32;19999;-78
2021/12/26 14:49:43;;;;;;;;;;;5.10;99.90;;;;;;4420303;32;20003;-78
2021/12/26 14:52:13;;;;;;;;;;;5.20;99.90;;;;;;4419936;32;20021;-78
2021/12/26 14:54:51;;;;;;;;;;;5.20;99.90;;;;;;4420336;32;20094;-78
2021/12/26 14:57:26;;;;;;;;;;;5.20;99.90;;;;;;4407980;32;20015;-78
2021/12/26 14:59:57;;;;;;;;;;;5.20;99.90;;;;;;4407816;32;20010;-78
2021/12/26 15:02:25;;;;;;;;;;;5.20;99.90;;;;;;4407348;32;20007;-78
2021/12/26 15:05:01;;;;;;;;;;;5.20;99.90;;;;;;4407748;32;20107;-78
2021/12/26 15:07:42;;;;;;;;;;;5.20;99.90;;;;;;4420739;32;20012;-78
2021/12/26 15:10:11;;;;;;;;;;;5.20;99.90;;;;;;4408111;32;20007;-77
2021/12/26 15:12:51;;;;;;;;;;;5.20;99.90;;;;;;4407157;32;20004;-78
2021/12/26 15:15:22;;;;;;;;;;;5.20;99.90;;;;;;4407716;32;20033;-79
2021/12/26 15:17:51;;;;;;;;;;;5.20;99.90;;;;;;4407935;32;20033;-77
2021/12/26 15:20:23;;;;;;;;;;;5.20;99.90;;;;;;4420238;32;20021;-77
2021/12/26 15:22:55;;;;;;;;;;;5.20;99.90;;;;;;4423220;32;20066;-77
2021/12/26 15:25:27;;;;;;;;;;;5.20;99.90;;;;;;4424314;32;20499;-77
2021/12/26 15:28:04;;;;;;;;;;;5.20;99.90;;;;;;4423746;32;20041;-77
2021/12/26 15:30:39;;;;;;;;;;;5.20;99.90;;;;;;4423234;32;20004;-77